Flight Track Log - Related Links

Times and Time Zones

All times are in EST time to prevent confusion due to time zone crossing. See the ADR726 flight status page for this flight to view local times or setup timezone preferences in your user account.

Time Position Orientation Groundspeed Altitude Reporting Facility
EST Latitude Longitude Course Direction KTS MPH feet Rate Location/Type
Thu 05:57:00 PM 45.7537 15.0241 140° Southeast  Level Estimated
Thu 05:58:00 PM 45.6751 15.1175 140° Southeast  Level Estimated
Thu 05:59:00 PM 45.5964 15.2108 140° Southeast  Level Estimated
Thu 06:00:00 PM 45.5177 15.3037 140° Southeast  Level Estimated
Thu 06:01:00 PM 45.4389 15.3964 140° Southeast  Level Estimated
Thu 06:02:00 PM 45.3600 15.4889 141° Southeast  Level Estimated
Thu 06:03:00 PM 45.2810 15.5810 141° Southeast  Level Estimated
Thu 06:04:00 PM 45.2019 15.6730 141° Southeast  Level Estimated
Thu 06:05:00 PM 45.1228 15.7646 141° Southeast  Level Estimated
Thu 06:06:00 PM 45.0436 15.8561 141° Southeast  Level Estimated
Thu 06:07:00 PM 44.9643 15.9472 141° Southeast  Level Estimated
Thu 06:08:00 PM 44.8850 16.0381 141° Southeast  Level Estimated
Thu 06:09:00 PM 44.8056 16.1288 141° Southeast  Level Estimated
Thu 06:10:00 PM 44.7261 16.2192 141° Southeast  Level Estimated
Thu 06:11:00 PM 44.6465 16.3094 141° Southeast  Level Estimated
Thu 06:12:00 PM 44.5669 16.3993 141° Southeast  Level Estimated
Thu 06:13:00 PM 44.4872 16.4890 141° Southeast  Level Estimated
Thu 06:14:00 PM 44.4074 16.5784 141° Southeast  Level Estimated
Thu 06:15:00 PM 44.3276 16.6676 141° Southeast  Level Estimated
Thu 06:16:00 PM 44.2477 16.7565 141° Southeast  Level Estimated
Thu 06:17:00 PM 44.1677 16.8452 141° Southeast  Level Estimated
Thu 06:18:00 PM 44.0877 16.9337 142° Southeast  Level Estimated
Thu 06:19:00 PM 44.0076 17.0219 142° Southeast  Level Estimated
Thu 06:20:00 PM 43.9274 17.1099 142° Southeast  Level Estimated
Thu 06:21:00 PM 43.8471 17.1976 142° Southeast  Level Estimated
Thu 06:22:00 PM 43.7668 17.2851 142° Southeast  Level Estimated
Thu 06:23:00 PM 43.6865 17.3724 142° Southeast  Level Estimated
Thu 06:24:00 PM 43.6060 17.4594 142° Southeast  Level Estimated
Thu 06:25:00 PM 43.5255 17.5462 142° Southeast  Level Estimated
Thu 06:26:00 PM 43.4449 17.6328 142° Southeast  Level Estimated
Thu 06:27:00 PM 43.3643 17.7191 142° Southeast  Level Estimated
Thu 06:28:00 PM 43.2836 17.8053 142° Southeast  Level Estimated
Thu 06:29:00 PM 43.2028 17.8911 142° Southeast  Level Estimated
Thu 06:30:00 PM 43.1220 17.9768 142° Southeast  Level Estimated
Thu 06:31:00 PM 43.0411 18.0622 142° Southeast  Level Estimated
Thu 06:32:00 PM 42.9601 18.1474 142° Southeast  Level Estimated
Thu 06:33:00 PM 42.8791 18.2324 142° Southeast  Level Estimated
Thu 06:34:00 PM 42.7980 18.3172 143° Southeast  Level Estimated
Thu 06:35:00 PM 42.7169 18.4017 143° Southeast  Level Estimated
Thu 06:36:00 PM 42.6356 18.4860 143° Southeast  Level Estimated
Thu 06:37:00 PM 42.5544 18.5701 143° Southeast  Level Estimated
Thu 06:38:00 PM 42.4730 18.6540 143° Southeast  Level Estimated
Thu 06:39:00 PM 42.3916 18.7377 143° Southeast  Level Estimated
Thu 06:40:00 PM 42.3102 18.8211 143° Southeast  Level Estimated
Thu 06:41:00 PM 42.2286 18.9044 143° Southeast  Level Estimated
Thu 06:42:00 PM 42.1471 18.9874 143° Southeast  Level Estimated
Thu 06:43:00 PM 42.0654 19.0702 143° Southeast  Level Estimated
Thu 06:44:00 PM 41.9837 19.1528 143° Southeast  Level Estimated
Thu 06:45:00 PM 41.9020 19.2351 143° Southeast  Level Estimated
Thu 06:46:00 PM 41.8202 19.3173 143° Southeast  Level Estimated
Thu 06:47:00 PM 41.7383 19.3993 143° Southeast  Level Estimated
Thu 06:48:00 PM 41.6564 19.4810 143° Southeast  Level Estimated
Thu 06:49:00 PM 41.5744 19.5626 143° Southeast  Level Estimated
Thu 06:50:00 PM 41.4923 19.6439 143° Southeast  Level Estimated
Thu 06:51:00 PM 41.4147 19.7206 143° Southeast  Level Estimated
Thu 06:52:00 PM 41.4147 19.7206 21° North  Level Estimated
Thu 06:53:00 PM 41.4147 19.7206 21° North  Level Estimated
Thu 06:54:00 PM 41.4147 19.7206 21° North  Level Estimated
Thu 06:55:00 PM 41.4147 19.7206 21° North  Level Estimated
Thu 06:56:00 PM 41.4147 19.7206 21° North  Level Estimated
Thu 06:57:00 PM 41.4147 19.7206 21° North  Level Estimated
Thu 06:58:00 PM 41.4147 19.7206 21° North  Level Estimated
Thu 06:59:00 PM 41.4147 19.7206 21° North  Level Estimated
Thu 07:00:00 PM 41.4147 19.7206 21° North  Level Estimated
Thu 07:01:00 PM 41.4147 19.7206 21° North  Level Estimated
Thu 07:02:00 PM 41.4147 19.7206 21° North  Level Estimated
Thu 07:03:00 PM 41.4147 19.7206 21° North  Level Estimated
Thu 07:04:00 PM 41.4147 19.7206 21° North  Level Estimated
Thu 07:05:00 PM 41.4147 19.7206 21° North  Level Estimated
Thu 07:06:00 PM 41.4147 19.7206 21° North  Level Estimated
Thu 07:07:00 PM 41.4147 19.7206 21° North  Level Estimated

Login

Don't have an account? Register now (free) for customized features, flight alerts, and more!